createdAt,value
2022-11-14T00:01:28.521Z,39.70
2022-11-14T00:11:35.688Z,36.50
2022-11-14T00:21:46.663Z,34.60
2022-11-14T00:31:53.598Z,35.20
2022-11-14T00:41:59.602Z,42.50
2022-11-14T00:52:05.393Z,46.50
2022-11-14T01:02:12.521Z,40.20
2022-11-14T01:12:19.747Z,38.50
2022-11-14T01:22:27.155Z,37.00
2022-11-14T01:32:33.484Z,42.00
2022-11-14T01:42:40.503Z,39.00
2022-11-14T01:52:47.677Z,39.90
2022-11-14T02:03:30.189Z,32.30
2022-11-14T02:13:37.591Z,30.20
2022-11-14T02:23:44.779Z,32.80
2022-11-14T02:33:51.786Z,26.90
2022-11-14T02:43:58.784Z,28.60
2022-11-14T02:54:05.830Z,24.20
2022-11-14T03:04:13.035Z,24.30
2022-11-14T03:14:20.633Z,30.60
2022-11-14T03:24:27.646Z,34.20
2022-11-14T03:34:34.523Z,54.30
2022-11-14T03:44:40.256Z,60.90
2022-11-14T03:54:47.169Z,33.70
2022-11-14T04:04:54.473Z,34.10
2022-11-14T04:15:00.466Z,32.30
2022-11-14T04:25:08.493Z,26.50
2022-11-14T04:35:15.565Z,24.40
2022-11-14T04:45:22.669Z,27.90
2022-11-14T04:55:30.000Z,21.80
2022-11-14T05:05:41.707Z,28.20
2022-11-14T05:15:49.768Z,21.80
2022-11-14T05:26:01.202Z,22.80
2022-11-14T05:36:10.728Z,22.00
2022-11-14T05:46:18.673Z,23.40
2022-11-14T05:56:26.131Z,25.30
2022-11-14T06:06:33.146Z,24.70
2022-11-14T06:16:40.376Z,23.80
2022-11-14T06:26:47.621Z,26.50
2022-11-14T06:36:54.687Z,23.30
2022-11-14T06:47:02.002Z,25.70
2022-11-14T06:57:08.991Z,31.20
2022-11-14T07:07:15.994Z,26.20
2022-11-14T07:17:27.115Z,29.20
2022-11-14T07:27:37.130Z,24.50
2022-11-14T07:37:44.394Z,24.80
2022-11-14T07:47:51.390Z,28.30
2022-11-14T07:58:00.613Z,29.80
2022-11-14T08:08:07.901Z,35.90
2022-11-14T08:18:15.061Z,36.00
2022-11-14T08:28:22.207Z,30.90
2022-11-14T08:38:29.681Z,40.30
2022-11-14T08:48:37.324Z,41.40
2022-11-14T08:58:44.545Z,43.10
2022-11-14T09:08:51.999Z,52.00
2022-11-14T09:18:59.009Z,55.80
2022-11-14T09:29:06.661Z,44.90
2022-11-14T09:49:21.819Z,30.00
2022-11-14T09:59:30.437Z,41.60
2022-11-14T10:09:43.246Z,36.90
2022-11-14T10:19:55.589Z,36.60
2022-11-14T10:30:04.792Z,39.30
2022-11-14T10:40:16.149Z,42.70
2022-11-14T10:50:23.205Z,39.00
2022-11-14T11:00:29.523Z,39.50
2022-11-14T11:10:59.628Z,37.00
2022-11-14T11:21:05.702Z,31.40
2022-11-14T11:31:13.977Z,33.10
2022-11-14T11:41:33.163Z,35.10
2022-11-14T11:51:38.608Z,33.90
2022-11-14T12:01:46.020Z,32.20
2022-11-14T12:11:59.106Z,27.20
2022-11-14T12:22:27.632Z,24.00
2022-11-14T12:32:39.344Z,23.40
2022-11-14T12:42:47.396Z,32.60
2022-11-14T12:52:55.012Z,23.40
2022-11-14T13:03:21.517Z,26.30
2022-11-14T13:13:46.438Z,26.50
2022-11-14T13:23:58.173Z,28.70
2022-11-14T13:34:30.764Z,28.80
2022-11-14T13:45:12.754Z,38.20
2022-11-14T13:55:21.230Z,36.00
2022-11-14T14:05:29.114Z,41.80
2022-11-14T14:15:38.106Z,57.40
2022-11-14T14:25:48.948Z,46.30
2022-11-14T14:35:56.863Z,51.10
2022-11-14T14:46:03.296Z,59.80
2022-11-14T14:56:21.142Z,56.90
2022-11-14T15:06:27.685Z,56.50
2022-11-14T15:16:34.704Z,58.50
2022-11-14T15:26:41.286Z,58.70
2022-11-14T15:37:18.231Z,59.70
2022-11-14T15:47:23.580Z,60.10
2022-11-14T15:57:32.674Z,74.00
2022-11-14T16:07:39.767Z,86.90
2022-11-14T16:17:48.986Z,96.50
2022-11-14T16:27:56.637Z,90.30
2022-11-14T16:38:03.831Z,95.10
2022-11-14T16:48:10.996Z,86.50
2022-11-14T16:58:18.227Z,113.80
2022-11-14T17:08:25.637Z,82.50
2022-11-14T17:18:38.097Z,73.00
2022-11-14T17:28:46.451Z,74.20
2022-11-14T17:38:53.888Z,76.60
2022-11-14T17:49:00.201Z,77.10
2022-11-14T17:59:07.831Z,78.10
2022-11-14T18:09:15.034Z,70.80
2022-11-14T18:19:22.197Z,59.80
2022-11-14T18:29:31.056Z,56.40
2022-11-14T18:39:38.428Z,44.10
2022-11-14T18:49:45.381Z,50.70
2022-11-14T18:59:52.482Z,58.40
2022-11-14T19:09:59.527Z,51.70
2022-11-14T19:20:10.089Z,64.60
2022-11-14T19:30:21.455Z,51.10
2022-11-14T19:40:30.086Z,49.10
2022-11-14T19:50:37.272Z,50.60
2022-11-14T20:00:44.562Z,61.30
2022-11-14T20:10:58.365Z,52.70
2022-11-14T20:21:04.169Z,52.70
2022-11-14T20:41:22.315Z,57.50
2022-11-14T20:51:29.888Z,59.60
2022-11-14T21:01:43.254Z,54.20
2022-11-14T21:11:51.125Z,51.90
2022-11-14T21:21:58.146Z,52.30
2022-11-14T21:32:05.420Z,52.80
2022-11-14T21:42:17.154Z,47.10
2022-11-14T21:52:25.962Z,42.50
2022-11-14T22:02:50.711Z,53.30
2022-11-14T22:12:58.693Z,61.70
2022-11-14T22:23:05.831Z,62.10
2022-11-14T22:33:12.928Z,65.10
2022-11-14T22:43:22.557Z,62.00
2022-11-14T22:53:29.256Z,64.40
2022-11-14T23:03:37.558Z,50.50
2022-11-14T23:13:47.029Z,57.80
2022-11-14T23:23:53.929Z,54.90
2022-11-14T23:34:01.064Z,57.30
2022-11-14T23:44:07.059Z,47.50
2022-11-14T23:54:14.276Z,40.20
